KLNA/LNA METAR and TAF weather

Enter ICAO airport designator
Station Type Date Time Source
KLNA METAR 2020/04/01 04:35 UTC NOAA

KLNA 010435Z AUTO 24012KT CLR 25/23 A2980 RMK AO2 T02500225 PWINO PNO


Station Type Date Time Source
KLNA Decoded METAR 2020/04/01 04:35 UTC NOAA

Station name not available
Apr 01, 2020 - 12:35 AM EDT / 2020.04.01 0435 UTC
Wind: from the WSW (240 degrees) at 14 MPH (12 KT):0
Sky conditions: clear
Temperature: 77.0 F (25.0 C)
Dew Point: 72.5 F (22.5 C)
Relative Humidity: 86%
Pressure (altimeter): 29.8 in. Hg (1009 hPa)
ob: KLNA 010435Z AUTO 24012KT CLR 25/23 A2980 RMK AO2 T02500225 PWINO PNO
cycle: 4

Station Type Date Time Source
KLNA TAF UTC NOAA

Error!

Example: see airport list